sensor_id;sensor_type;location;lat;lon;timestamp;P1;durP1;ratioP1;P2;durP2;ratioP2
22455;SDS011;11395;53.204;6.502;2022-11-15T00:09:30;5.73;;;5.17;;
22455;SDS011;11395;53.204;6.502;2022-11-15T00:12:15;6.07;;;5.47;;
22455;SDS011;11395;53.204;6.502;2022-11-15T00:15:00;6.00;;;5.40;;
22455;SDS011;11395;53.204;6.502;2022-11-15T00:17:46;6.80;;;6.10;;
22455;SDS011;11395;53.204;6.502;2022-11-15T00:20:33;7.10;;;6.00;;
22455;SDS011;11395;53.204;6.502;2022-11-15T00:23:18;6.30;;;5.70;;
22455;SDS011;11395;53.204;6.502;2022-11-15T00:26:03;7.60;;;5.77;;
22455;SDS011;11395;53.204;6.502;2022-11-15T00:28:48;6.30;;;5.70;;
22455;SDS011;11395;53.204;6.502;2022-11-15T00:31:33;6.27;;;5.67;;
22455;SDS011;11395;53.204;6.502;2022-11-15T00:34:18;8.00;;;6.27;;
22455;SDS011;11395;53.204;6.502;2022-11-15T00:37:03;6.47;;;5.73;;
22455;SDS011;11395;53.204;6.502;2022-11-15T00:39:47;7.23;;;6.53;;
22455;SDS011;11395;53.204;6.502;2022-11-15T00:42:32;7.50;;;5.97;;
22455;SDS011;11395;53.204;6.502;2022-11-15T00:45:16;7.63;;;6.13;;
22455;SDS011;11395;53.204;6.502;2022-11-15T00:48:01;6.60;;;5.53;;
22455;SDS011;11395;53.204;6.502;2022-11-15T00:50:46;6.13;;;5.53;;
22455;SDS011;11395;53.204;6.502;2022-11-15T00:53:32;6.73;;;5.87;;
22455;SDS011;11395;53.204;6.502;2022-11-15T00:56:16;6.20;;;5.60;;
22455;SDS011;11395;53.204;6.502;2022-11-15T00:59:01;6.73;;;6.03;;
22455;SDS011;11395;53.204;6.502;2022-11-15T01:09:34;5.97;;;5.37;;
22455;SDS011;11395;53.204;6.502;2022-11-15T01:12:19;6.83;;;5.77;;
22455;SDS011;11395;53.204;6.502;2022-11-15T01:15:04;6.63;;;5.83;;
22455;SDS011;11395;53.204;6.502;2022-11-15T01:17:49;5.67;;;5.17;;
22455;SDS011;11395;53.204;6.502;2022-11-15T01:20:34;6.13;;;5.53;;
22455;SDS011;11395;53.204;6.502;2022-11-15T01:23:18;5.90;;;5.30;;
22455;SDS011;11395;53.204;6.502;2022-11-15T01:26:04;5.80;;;5.27;;
22455;SDS011;11395;53.204;6.502;2022-11-15T01:28:51;6.37;;;5.73;;
22455;SDS011;11395;53.204;6.502;2022-11-15T01:31:36;6.17;;;5.57;;
22455;SDS011;11395;53.204;6.502;2022-11-15T01:34:21;6.57;;;5.73;;
22455;SDS011;11395;53.204;6.502;2022-11-15T01:37:05;6.53;;;5.40;;
22455;SDS011;11395;53.204;6.502;2022-11-15T01:39:50;6.60;;;5.90;;
22455;SDS011;11395;53.204;6.502;2022-11-15T01:42:35;5.43;;;4.93;;
22455;SDS011;11395;53.204;6.502;2022-11-15T01:45:19;6.37;;;5.43;;
22455;SDS011;11395;53.204;6.502;2022-11-15T01:48:04;5.67;;;5.17;;
22455;SDS011;11395;53.204;6.502;2022-11-15T01:50:52;5.63;;;5.13;;
22455;SDS011;11395;53.204;6.502;2022-11-15T01:53:37;6.53;;;5.63;;
22455;SDS011;11395;53.204;6.502;2022-11-15T01:56:27;6.77;;;5.57;;
22455;SDS011;11395;53.204;6.502;2022-11-15T01:59:15;6.17;;;5.57;;
22455;SDS011;11395;53.204;6.502;2022-11-15T02:09:32;11.13;;;5.50;;
22455;SDS011;11395;53.204;6.502;2022-11-15T02:12:18;5.60;;;5.10;;
22455;SDS011;11395;53.204;6.502;2022-11-15T02:15:05;5.60;;;5.10;;
22455;SDS011;11395;53.204;6.502;2022-11-15T02:21:10;5.60;;;4.77;;
22455;SDS011;11395;53.204;6.502;2022-11-15T02:27:29;6.03;;;5.43;;
22455;SDS011;11395;53.204;6.502;2022-11-15T02:33:39;5.53;;;5.00;;
22455;SDS011;11395;53.204;6.502;2022-11-15T02:36:57;4.90;;;4.47;;
22455;SDS011;11395;53.204;6.502;2022-11-15T02:42:53;6.07;;;5.47;;
22455;SDS011;11395;53.204;6.502;2022-11-15T02:46:05;5.87;;;5.27;;
22455;SDS011;11395;53.204;6.502;2022-11-15T02:48:56;7.33;;;6.23;;
22455;SDS011;11395;53.204;6.502;2022-11-15T02:51:42;6.07;;;5.47;;
22455;SDS011;11395;53.204;6.502;2022-11-15T02:54:29;4.90;;;4.40;;
22455;SDS011;11395;53.204;6.502;2022-11-15T02:57:16;5.23;;;4.73;;
22455;SDS011;11395;53.204;6.502;2022-11-15T03:12:36;5.53;;;4.97;;
22455;SDS011;11395;53.204;6.502;2022-11-15T03:15:31;6.00;;;5.40;;
22455;SDS011;11395;53.204;6.502;2022-11-15T03:18:34;5.83;;;5.23;;
22455;SDS011;11395;53.204;6.502;2022-11-15T03:21:26;5.23;;;4.73;;
22455;SDS011;11395;53.204;6.502;2022-11-15T03:24:14;4.97;;;4.50;;
22455;SDS011;11395;53.204;6.502;2022-11-15T03:27:04;5.50;;;5.00;;
22455;SDS011;11395;53.204;6.502;2022-11-15T03:29:52;5.27;;;4.77;;
22455;SDS011;11395;53.204;6.502;2022-11-15T03:32:45;5.63;;;5.10;;
22455;SDS011;11395;53.204;6.502;2022-11-15T03:35:32;5.43;;;4.90;;
22455;SDS011;11395;53.204;6.502;2022-11-15T03:38:25;5.37;;;4.87;;
22455;SDS011;11395;53.204;6.502;2022-11-15T03:41:22;5.27;;;4.77;;
22455;SDS011;11395;53.204;6.502;2022-11-15T03:44:34;4.77;;;4.37;;
22455;SDS011;11395;53.204;6.502;2022-11-15T03:47:40;5.03;;;4.60;;
22455;SDS011;11395;53.204;6.502;2022-11-15T03:50:29;5.53;;;5.03;;
22455;SDS011;11395;53.204;6.502;2022-11-15T03:53:14;5.27;;;4.77;;
22455;SDS011;11395;53.204;6.502;2022-11-15T03:55:59;5.87;;;5.23;;
22455;SDS011;11395;53.204;6.502;2022-11-15T03:58:44;5.87;;;5.23;;
22455;SDS011;11395;53.204;6.502;2022-11-15T04:09:32;4.70;;;4.30;;
22455;SDS011;11395;53.204;6.502;2022-11-15T04:12:17;5.23;;;4.73;;
22455;SDS011;11395;53.204;6.502;2022-11-15T04:15:16;5.20;;;4.77;;
22455;SDS011;11395;53.204;6.502;2022-11-15T04:18:02;6.03;;;5.13;;
22455;SDS011;11395;53.204;6.502;2022-11-15T04:20:47;4.90;;;4.40;;
22455;SDS011;11395;53.204;6.502;2022-11-15T04:23:51;5.77;;;5.03;;
22455;SDS011;11395;53.204;6.502;2022-11-15T04:26:54;5.80;;;5.00;;
22455;SDS011;11395;53.204;6.502;2022-11-15T04:29:39;5.43;;;4.77;;
22455;SDS011;11395;53.204;6.502;2022-11-15T04:32:23;5.77;;;5.10;;
22455;SDS011;11395;53.204;6.502;2022-11-15T04:35:08;5.00;;;4.50;;
22455;SDS011;11395;53.204;6.502;2022-11-15T04:37:53;5.23;;;4.67;;
22455;SDS011;11395;53.204;6.502;2022-11-15T04:40:38;5.47;;;4.63;;
22455;SDS011;11395;53.204;6.502;2022-11-15T04:43:23;4.70;;;4.30;;
22455;SDS011;11395;53.204;6.502;2022-11-15T04:46:07;5.27;;;4.23;;
22455;SDS011;11395;53.204;6.502;2022-11-15T04:48:52;5.53;;;4.63;;
22455;SDS011;11395;53.204;6.502;2022-11-15T04:51:37;4.73;;;4.23;;
22455;SDS011;11395;53.204;6.502;2022-11-15T04:54:22;5.23;;;4.40;;
22455;SDS011;11395;53.204;6.502;2022-11-15T04:57:07;4.47;;;4.07;;
22455;SDS011;11395;53.204;6.502;2022-11-15T04:59:52;4.37;;;3.97;;
22455;SDS011;11395;53.204;6.502;2022-11-15T05:02:36;4.70;;;4.17;;
22455;SDS011;11395;53.204;6.502;2022-11-15T05:05:40;5.20;;;4.53;;
22455;SDS011;11395;53.204;6.502;2022-11-15T05:08:25;4.00;;;3.60;;
22455;SDS011;11395;53.204;6.502;2022-11-15T05:11:10;4.20;;;3.80;;
22455;SDS011;11395;53.204;6.502;2022-11-15T05:13:54;4.37;;;3.93;;
22455;SDS011;11395;53.204;6.502;2022-11-15T05:16:40;5.03;;;4.13;;
22455;SDS011;11395;53.204;6.502;2022-11-15T05:19:25;4.90;;;4.07;;
22455;SDS011;11395;53.204;6.502;2022-11-15T05:22:09;4.73;;;4.07;;
22455;SDS011;11395;53.204;6.502;2022-11-15T05:24:53;5.07;;;4.43;;
22455;SDS011;11395;53.204;6.502;2022-11-15T05:27:38;4.47;;;4.07;;
22455;SDS011;11395;53.204;6.502;2022-11-15T05:30:22;3.70;;;3.40;;
22455;SDS011;11395;53.204;6.502;2022-11-15T05:33:07;4.40;;;3.60;;
22455;SDS011;11395;53.204;6.502;2022-11-15T05:35:57;4.27;;;3.87;;
22455;SDS011;11395;53.204;6.502;2022-11-15T05:38:50;5.77;;;4.33;;
22455;SDS011;11395;53.204;6.502;2022-11-15T05:41:36;4.87;;;4.00;;
22455;SDS011;11395;53.204;6.502;2022-11-15T05:44:24;4.27;;;3.90;;
22455;SDS011;11395;53.204;6.502;2022-11-15T05:47:11;4.40;;;4.00;;
22455;SDS011;11395;53.204;6.502;2022-11-15T05:49:59;4.77;;;4.07;;
22455;SDS011;11395;53.204;6.502;2022-11-15T05:52:43;4.70;;;3.70;;
22455;SDS011;11395;53.204;6.502;2022-11-15T05:55:29;3.57;;;3.27;;
22455;SDS011;11395;53.204;6.502;2022-11-15T05:58:15;4.00;;;3.13;;
22455;SDS011;11395;53.204;6.502;2022-11-15T06:01:01;4.20;;;3.70;;
22455;SDS011;11395;53.204;6.502;2022-11-15T06:03:46;3.80;;;3.40;;
22455;SDS011;11395;53.204;6.502;2022-11-15T06:06:30;3.30;;;3.00;;
22455;SDS011;11395;53.204;6.502;2022-11-15T06:09:15;4.17;;;3.70;;
22455;SDS011;11395;53.204;6.502;2022-11-15T06:12:00;3.80;;;3.43;;
22455;SDS011;11395;53.204;6.502;2022-11-15T06:14:44;3.90;;;3.20;;
22455;SDS011;11395;53.204;6.502;2022-11-15T06:17:29;3.40;;;3.10;;
22455;SDS011;11395;53.204;6.502;2022-11-15T06:20:13;4.40;;;3.40;;
22455;SDS011;11395;53.204;6.502;2022-11-15T06:23:02;3.60;;;3.30;;
22455;SDS011;11395;53.204;6.502;2022-11-15T06:25:48;4.43;;;3.37;;
22455;SDS011;11395;53.204;6.502;2022-11-15T06:28:32;3.37;;;2.97;;
22455;SDS011;11395;53.204;6.502;2022-11-15T06:31:17;4.07;;;3.67;;
22455;SDS011;11395;53.204;6.502;2022-11-15T06:34:02;3.53;;;3.23;;
22455;SDS011;11395;53.204;6.502;2022-11-15T06:36:46;3.63;;;3.33;;
22455;SDS011;11395;53.204;6.502;2022-11-15T06:39:31;3.57;;;3.27;;
22455;SDS011;11395;53.204;6.502;2022-11-15T06:42:15;3.83;;;3.30;;
22455;SDS011;11395;53.204;6.502;2022-11-15T06:45:00;3.47;;;3.17;;
22455;SDS011;11395;53.204;6.502;2022-11-15T06:47:45;4.10;;;3.70;;
22455;SDS011;11395;53.204;6.502;2022-11-15T06:50:30;4.27;;;3.33;;
22455;SDS011;11395;53.204;6.502;2022-11-15T06:53:15;3.73;;;3.30;;
22455;SDS011;11395;53.204;6.502;2022-11-15T06:56:00;3.73;;;3.40;;
22455;SDS011;11395;53.204;6.502;2022-11-15T06:58:46;3.43;;;3.13;;
22455;SDS011;11395;53.204;6.502;2022-11-15T07:01:30;3.50;;;3.20;;
22455;SDS011;11395;53.204;6.502;2022-11-15T07:04:15;5.20;;;3.83;;
22455;SDS011;11395;53.204;6.502;2022-11-15T07:06:59;4.20;;;3.90;;
22455;SDS011;11395;53.204;6.502;2022-11-15T07:09:44;6.07;;;3.83;;
22455;SDS011;11395;53.204;6.502;2022-11-15T07:12:28;4.17;;;3.60;;
22455;SDS011;11395;53.204;6.502;2022-11-15T07:15:13;4.03;;;3.63;;
22455;SDS011;11395;53.204;6.502;2022-11-15T07:18:02;3.60;;;3.30;;
22455;SDS011;11395;53.204;6.502;2022-11-15T07:20:47;3.90;;;3.47;;
22455;SDS011;11395;53.204;6.502;2022-11-15T07:23:31;4.70;;;3.70;;
22455;SDS011;11395;53.204;6.502;2022-11-15T07:26:16;4.93;;;3.80;;
22455;SDS011;11395;53.204;6.502;2022-11-15T07:29:01;3.43;;;3.13;;
22455;SDS011;11395;53.204;6.502;2022-11-15T07:31:46;4.13;;;3.63;;
22455;SDS011;11395;53.204;6.502;2022-11-15T07:34:31;4.63;;;3.87;;
22455;SDS011;11395;53.204;6.502;2022-11-15T07:37:16;4.17;;;3.77;;
22455;SDS011;11395;53.204;6.502;2022-11-15T07:40:01;3.97;;;3.67;;
22455;SDS011;11395;53.204;6.502;2022-11-15T07:42:45;4.03;;;3.53;;
22455;SDS011;11395;53.204;6.502;2022-11-15T07:45:43;4.00;;;3.50;;
22455;SDS011;11395;53.204;6.502;2022-11-15T07:48:29;4.37;;;3.53;;
22455;SDS011;11395;53.204;6.502;2022-11-15T07:51:15;4.13;;;3.40;;
22455;SDS011;11395;53.204;6.502;2022-11-15T07:54:00;4.10;;;3.70;;
22455;SDS011;11395;53.204;6.502;2022-11-15T07:56:45;3.73;;;3.30;;
22455;SDS011;11395;53.204;6.502;2022-11-15T07:59:29;3.80;;;3.20;;
22455;SDS011;11395;53.204;6.502;2022-11-15T08:02:14;4.07;;;3.67;;
22455;SDS011;11395;53.204;6.502;2022-11-15T08:05:02;5.47;;;3.70;;
22455;SDS011;11395;53.204;6.502;2022-11-15T08:07:48;3.93;;;3.53;;
22455;SDS011;11395;53.204;6.502;2022-11-15T08:10:33;3.60;;;3.33;;
22455;SDS011;11395;53.204;6.502;2022-11-15T08:13:18;3.67;;;3.37;;
22455;SDS011;11395;53.204;6.502;2022-11-15T08:16:04;5.90;;;3.40;;
22455;SDS011;11395;53.204;6.502;2022-11-15T08:18:49;3.40;;;3.10;;
22455;SDS011;11395;53.204;6.502;2022-11-15T08:21:34;5.40;;;3.70;;
22455;SDS011;11395;53.204;6.502;2022-11-15T08:24:19;3.83;;;3.43;;
22455;SDS011;11395;53.204;6.502;2022-11-15T08:27:04;3.57;;;3.27;;
22455;SDS011;11395;53.204;6.502;2022-11-15T08:29:58;3.97;;;3.50;;
22455;SDS011;11395;53.204;6.502;2022-11-15T08:32:43;5.23;;;3.40;;
22455;SDS011;11395;53.204;6.502;2022-11-15T08:35:28;4.00;;;3.67;;
22455;SDS011;11395;53.204;6.502;2022-11-15T08:38:13;3.80;;;3.50;;
22455;SDS011;11395;53.204;6.502;2022-11-15T08:41:03;3.47;;;3.13;;
22455;SDS011;11395;53.204;6.502;2022-11-15T08:43:48;3.63;;;3.33;;
22455;SDS011;11395;53.204;6.502;2022-11-15T08:46:33;4.30;;;3.80;;
22455;SDS011;11395;53.204;6.502;2022-11-15T08:49:17;4.57;;;3.17;;
22455;SDS011;11395;53.204;6.502;2022-11-15T08:52:02;4.63;;;4.00;;
22455;SDS011;11395;53.204;6.502;2022-11-15T08:54:47;2.93;;;2.67;;
22455;SDS011;11395;53.204;6.502;2022-11-15T08:57:32;4.63;;;3.90;;
22455;SDS011;11395;53.204;6.502;2022-11-15T09:00:17;7.27;;;3.57;;
22455;SDS011;11395;53.204;6.502;2022-11-15T09:03:04;3.60;;;3.30;;
22455;SDS011;11395;53.204;6.502;2022-11-15T09:05:54;4.63;;;3.40;;
22455;SDS011;11395;53.204;6.502;2022-11-15T09:08:40;3.97;;;3.10;;
22455;SDS011;11395;53.204;6.502;2022-11-15T09:11:25;3.40;;;3.10;;
22455;SDS011;11395;53.204;6.502;2022-11-15T09:14:11;3.33;;;3.00;;
22455;SDS011;11395;53.204;6.502;2022-11-15T09:16:56;4.03;;;3.13;;
22455;SDS011;11395;53.204;6.502;2022-11-15T09:19:42;4.30;;;3.57;;
22455;SDS011;11395;53.204;6.502;2022-11-15T09:22:26;3.77;;;3.10;;
22455;SDS011;11395;53.204;6.502;2022-11-15T09:25:11;3.67;;;3.30;;
22455;SDS011;11395;53.204;6.502;2022-11-15T09:27:56;3.27;;;2.93;;
22455;SDS011;11395;53.204;6.502;2022-11-15T09:30:40;3.57;;;3.27;;
22455;SDS011;11395;53.204;6.502;2022-11-15T09:33:25;4.37;;;3.47;;
22455;SDS011;11395;53.204;6.502;2022-11-15T09:36:10;3.57;;;3.27;;
22455;SDS011;11395;53.204;6.502;2022-11-15T09:38:57;3.87;;;2.80;;
22455;SDS011;11395;53.204;6.502;2022-11-15T09:50:36;3.40;;;3.10;;
22455;SDS011;11395;53.204;6.502;2022-11-15T09:53:04;4.63;;;3.00;;
22455;SDS011;11395;53.204;6.502;2022-11-15T09:56:18;3.27;;;2.97;;
22455;SDS011;11395;53.204;6.502;2022-11-15T10:01:07;3.10;;;2.77;;
22455;SDS011;11395;53.204;6.502;2022-11-15T10:03:58;3.80;;;2.93;;
22455;SDS011;11395;53.204;6.502;2022-11-15T10:06:25;3.40;;;3.10;;
22455;SDS011;11395;53.204;6.502;2022-11-15T10:09:04;3.43;;;3.13;;
22455;SDS011;11395;53.204;6.502;2022-11-15T10:11:38;3.67;;;2.73;;
22455;SDS011;11395;53.204;6.502;2022-11-15T10:14:10;3.10;;;2.90;;
22455;SDS011;11395;53.204;6.502;2022-11-15T10:19:51;3.07;;;2.80;;
22455;SDS011;11395;53.204;6.502;2022-11-15T10:22:24;3.37;;;3.07;;
22455;SDS011;11395;53.204;6.502;2022-11-15T10:27:46;3.57;;;3.03;;
22455;SDS011;11395;53.204;6.502;2022-11-15T10:30:18;5.27;;;2.90;;
22455;SDS011;11395;53.204;6.502;2022-11-15T10:32:45;3.30;;;2.77;;
22455;SDS011;11395;53.204;6.502;2022-11-15T10:35:24;2.97;;;2.57;;
22455;SDS011;11395;53.204;6.502;2022-11-15T10:37:51;4.37;;;3.17;;
22455;SDS011;11395;53.204;6.502;2022-11-15T10:40:33;2.80;;;2.53;;
22455;SDS011;11395;53.204;6.502;2022-11-15T10:43:12;3.50;;;2.93;;
22455;SDS011;11395;53.204;6.502;2022-11-15T10:45:41;2.50;;;2.30;;
22455;SDS011;11395;53.204;6.502;2022-11-15T10:50:41;3.07;;;2.77;;
22455;SDS011;11395;53.204;6.502;2022-11-15T10:55:47;3.50;;;2.83;;
22455;SDS011;11395;53.204;6.502;2022-11-15T11:00:48;5.03;;;2.93;;
22455;SDS011;11395;53.204;6.502;2022-11-15T11:03:33;2.90;;;2.70;;
22455;SDS011;11395;53.204;6.502;2022-11-15T11:06:16;2.57;;;2.37;;
22455;SDS011;11395;53.204;6.502;2022-11-15T11:08:53;4.00;;;2.43;;
22455;SDS011;11395;53.204;6.502;2022-11-15T11:11:20;2.90;;;2.70;;
22455;SDS011;11395;53.204;6.502;2022-11-15T11:13:46;3.17;;;2.40;;
22455;SDS011;11395;53.204;6.502;2022-11-15T11:19:25;2.80;;;2.60;;
22455;SDS011;11395;53.204;6.502;2022-11-15T11:27:58;3.03;;;2.57;;
22455;SDS011;11395;53.204;6.502;2022-11-15T11:30:41;3.07;;;2.67;;
22455;SDS011;11395;53.204;6.502;2022-11-15T11:33:33;2.13;;;2.00;;
22455;SDS011;11395;53.204;6.502;2022-11-15T11:36:21;2.73;;;2.53;;
22455;SDS011;11395;53.204;6.502;2022-11-15T11:44:18;3.37;;;2.40;;
22455;SDS011;11395;53.204;6.502;2022-11-15T11:46:56;2.63;;;2.43;;
22455;SDS011;11395;53.204;6.502;2022-11-15T12:00:26;3.90;;;2.70;;
22455;SDS011;11395;53.204;6.502;2022-11-15T12:03:07;2.57;;;2.37;;
22455;SDS011;11395;53.204;6.502;2022-11-15T12:06:06;3.43;;;2.93;;
22455;SDS011;11395;53.204;6.502;2022-11-15T12:08:45;3.00;;;2.60;;
22455;SDS011;11395;53.204;6.502;2022-11-15T12:11:27;2.93;;;2.60;;
22455;SDS011;11395;53.204;6.502;2022-11-15T12:14:16;4.30;;;2.17;;
22455;SDS011;11395;53.204;6.502;2022-11-15T12:17:04;2.80;;;2.30;;
22455;SDS011;11395;53.204;6.502;2022-11-15T12:19:30;2.57;;;2.37;;
22455;SDS011;11395;53.204;6.502;2022-11-15T12:22:02;2.33;;;2.20;;
22455;SDS011;11395;53.204;6.502;2022-11-15T12:24:40;3.00;;;2.70;;
22455;SDS011;11395;53.204;6.502;2022-11-15T12:30:00;2.37;;;2.17;;
22455;SDS011;11395;53.204;6.502;2022-11-15T12:32:35;2.50;;;2.30;;
22455;SDS011;11395;53.204;6.502;2022-11-15T12:35:05;2.13;;;1.87;;
22455;SDS011;11395;53.204;6.502;2022-11-15T12:37:47;2.27;;;2.10;;
22455;SDS011;11395;53.204;6.502;2022-11-15T12:40:20;3.27;;;2.40;;
22455;SDS011;11395;53.204;6.502;2022-11-15T12:45:40;2.50;;;2.10;;
22455;SDS011;11395;53.204;6.502;2022-11-15T12:58:45;3.27;;;2.17;;
22455;SDS011;11395;53.204;6.502;2022-11-15T13:04:08;2.13;;;1.97;;
22455;SDS011;11395;53.204;6.502;2022-11-15T13:14:39;2.77;;;2.10;;
22455;SDS011;11395;53.204;6.502;2022-11-15T13:17:22;2.10;;;1.90;;
22455;SDS011;11395;53.204;6.502;2022-11-15T13:20:28;2.23;;;2.03;;
22455;SDS011;11395;53.204;6.502;2022-11-15T13:23:12;1.90;;;1.80;;
22455;SDS011;11395;53.204;6.502;2022-11-15T13:28:39;2.13;;;2.00;;
22455;SDS011;11395;53.204;6.502;2022-11-15T13:31:22;2.23;;;2.03;;
22455;SDS011;11395;53.204;6.502;2022-11-15T13:33:49;2.07;;;1.90;;
22455;SDS011;11395;53.204;6.502;2022-11-15T13:36:21;3.00;;;2.33;;
22455;SDS011;11395;53.204;6.502;2022-11-15T13:38:59;4.23;;;2.07;;
22455;SDS011;11395;53.204;6.502;2022-11-15T13:41:31;2.17;;;1.97;;
22455;SDS011;11395;53.204;6.502;2022-11-15T13:43:59;2.17;;;1.97;;
22455;SDS011;11395;53.204;6.502;2022-11-15T13:46:27;3.10;;;2.07;;
22455;SDS011;11395;53.204;6.502;2022-11-15T13:56:48;1.90;;;1.80;;
22455;SDS011;11395;53.204;6.502;2022-11-15T13:59:28;1.93;;;1.60;;
22455;SDS011;11395;53.204;6.502;2022-11-15T14:01:57;1.97;;;1.80;;
22455;SDS011;11395;53.204;6.502;2022-11-15T14:04:27;1.90;;;1.80;;
22455;SDS011;11395;53.204;6.502;2022-11-15T14:06:56;1.80;;;1.70;;
22455;SDS011;11395;53.204;6.502;2022-11-15T14:09:29;1.63;;;1.50;;
22455;SDS011;11395;53.204;6.502;2022-11-15T14:11:57;1.60;;;1.50;;
22455;SDS011;11395;53.204;6.502;2022-11-15T14:14:23;2.17;;;1.83;;
22455;SDS011;11395;53.204;6.502;2022-11-15T14:16:52;1.60;;;1.50;;
22455;SDS011;11395;53.204;6.502;2022-11-15T14:24:35;1.70;;;1.60;;
22455;SDS011;11395;53.204;6.502;2022-11-15T14:27:22;1.90;;;1.80;;
22455;SDS011;11395;53.204;6.502;2022-11-15T14:29:50;1.90;;;1.70;;
22455;SDS011;11395;53.204;6.502;2022-11-15T14:32:18;1.60;;;1.40;;
22455;SDS011;11395;53.204;6.502;2022-11-15T14:34:54;2.07;;;1.70;;
22455;SDS011;11395;53.204;6.502;2022-11-15T14:37:29;1.53;;;1.43;;
22455;SDS011;11395;53.204;6.502;2022-11-15T14:39:59;1.70;;;1.60;;
22455;SDS011;11395;53.204;6.502;2022-11-15T14:42:26;1.40;;;1.30;;
22455;SDS011;11395;53.204;6.502;2022-11-15T14:44:52;1.67;;;1.57;;
22455;SDS011;11395;53.204;6.502;2022-11-15T14:47:19;1.83;;;1.60;;
22455;SDS011;11395;53.204;6.502;2022-11-15T14:49:45;1.80;;;1.70;;
22455;SDS011;11395;53.204;6.502;2022-11-15T14:52:16;3.40;;;1.60;;
22455;SDS011;11395;53.204;6.502;2022-11-15T14:54:45;1.60;;;1.50;;
22455;SDS011;11395;53.204;6.502;2022-11-15T14:57:11;1.90;;;1.80;;
22455;SDS011;11395;53.204;6.502;2022-11-15T14:59:37;1.80;;;1.70;;
22455;SDS011;11395;53.204;6.502;2022-11-15T15:02:08;1.70;;;1.60;;
22455;SDS011;11395;53.204;6.502;2022-11-15T15:04:42;2.40;;;1.60;;
22455;SDS011;11395;53.204;6.502;2022-11-15T15:07:08;2.03;;;1.83;;
22455;SDS011;11395;53.204;6.502;2022-11-15T15:09:35;1.33;;;1.30;;
22455;SDS011;11395;53.204;6.502;2022-11-15T15:12:01;1.63;;;1.53;;
22455;SDS011;11395;53.204;6.502;2022-11-15T15:14:27;1.73;;;1.63;;
22455;SDS011;11395;53.204;6.502;2022-11-15T15:16:53;1.50;;;1.40;;
22455;SDS011;11395;53.204;6.502;2022-11-15T15:19:20;1.63;;;1.50;;
22455;SDS011;11395;53.204;6.502;2022-11-15T15:21:46;1.53;;;1.43;;
22455;SDS011;11395;53.204;6.502;2022-11-15T15:24:15;1.93;;;1.73;;
22455;SDS011;11395;53.204;6.502;2022-11-15T15:26:41;1.77;;;1.50;;
22455;SDS011;11395;53.204;6.502;2022-11-15T15:29:09;2.93;;;1.90;;
22455;SDS011;11395;53.204;6.502;2022-11-15T15:31:35;2.40;;;1.93;;
22455;SDS011;11395;53.204;6.502;2022-11-15T15:34:01;1.77;;;1.67;;
22455;SDS011;11395;53.204;6.502;2022-11-15T15:36:27;1.70;;;1.60;;
22455;SDS011;11395;53.204;6.502;2022-11-15T15:38:53;1.50;;;1.40;;
22455;SDS011;11395;53.204;6.502;2022-11-15T15:41:20;2.00;;;1.53;;
22455;SDS011;11395;53.204;6.502;2022-11-15T15:43:46;1.80;;;1.40;;
22455;SDS011;11395;53.204;6.502;2022-11-15T15:46:17;1.40;;;1.40;;
22455;SDS011;11395;53.204;6.502;2022-11-15T15:48:45;1.27;;;1.23;;
22455;SDS011;11395;53.204;6.502;2022-11-15T15:51:11;1.63;;;1.50;;
22455;SDS011;11395;53.204;6.502;2022-11-15T15:53:37;1.43;;;1.33;;
22455;SDS011;11395;53.204;6.502;2022-11-15T15:56:04;1.33;;;1.23;;
22455;SDS011;11395;53.204;6.502;2022-11-15T15:58:33;1.60;;;1.50;;
22455;SDS011;11395;53.204;6.502;2022-11-15T16:01:00;1.50;;;1.40;;
22455;SDS011;11395;53.204;6.502;2022-11-15T16:03:26;1.37;;;1.37;;
22455;SDS011;11395;53.204;6.502;2022-11-15T16:05:53;1.73;;;1.63;;
22455;SDS011;11395;53.204;6.502;2022-11-15T16:08:20;1.60;;;1.50;;
22455;SDS011;11395;53.204;6.502;2022-11-15T16:10:48;1.70;;;1.60;;
22455;SDS011;11395;53.204;6.502;2022-11-15T16:13:15;1.60;;;1.50;;
22455;SDS011;11395;53.204;6.502;2022-11-15T16:15:43;1.40;;;1.30;;
22455;SDS011;11395;53.204;6.502;2022-11-15T16:18:12;1.10;;;1.10;;
22455;SDS011;11395;53.204;6.502;2022-11-15T16:23:16;1.50;;;1.50;;
22455;SDS011;11395;53.204;6.502;2022-11-15T16:25:46;1.37;;;1.30;;
22455;SDS011;11395;53.204;6.502;2022-11-15T16:28:25;1.80;;;1.70;;
22455;SDS011;11395;53.204;6.502;2022-11-15T16:30:59;1.50;;;1.40;;
22455;SDS011;11395;53.204;6.502;2022-11-15T16:33:26;1.20;;;1.20;;
22455;SDS011;11395;53.204;6.502;2022-11-15T16:35:52;1.30;;;1.30;;
22455;SDS011;11395;53.204;6.502;2022-11-15T16:38:18;1.53;;;1.50;;
22455;SDS011;11395;53.204;6.502;2022-11-15T16:40:45;1.20;;;1.20;;
22455;SDS011;11395;53.204;6.502;2022-11-15T16:43:11;1.30;;;1.30;;
22455;SDS011;11395;53.204;6.502;2022-11-15T16:45:38;1.40;;;1.30;;
22455;SDS011;11395;53.204;6.502;2022-11-15T16:48:05;1.20;;;1.20;;
22455;SDS011;11395;53.204;6.502;2022-11-15T16:50:32;1.40;;;1.30;;
22455;SDS011;11395;53.204;6.502;2022-11-15T16:53:05;1.20;;;1.20;;
22455;SDS011;11395;53.204;6.502;2022-11-15T16:55:40;1.57;;;1.50;;
22455;SDS011;11395;53.204;6.502;2022-11-15T16:58:09;1.57;;;1.47;;
22455;SDS011;11395;53.204;6.502;2022-11-15T17:04:32;1.40;;;1.30;;
22455;SDS011;11395;53.204;6.502;2022-11-15T17:07:11;1.40;;;1.30;;
22455;SDS011;11395;53.204;6.502;2022-11-15T17:10:05;1.40;;;1.40;;
22455;SDS011;11395;53.204;6.502;2022-11-15T17:12:47;1.23;;;1.20;;
22455;SDS011;11395;53.204;6.502;2022-11-15T17:15:23;1.30;;;1.20;;
22455;SDS011;11395;53.204;6.502;2022-11-15T17:17:52;1.70;;;1.60;;
22455;SDS011;11395;53.204;6.502;2022-11-15T17:20:24;1.70;;;1.60;;
22455;SDS011;11395;53.204;6.502;2022-11-15T17:22:56;1.30;;;1.20;;
22455;SDS011;11395;53.204;6.502;2022-11-15T17:25:23;1.50;;;1.40;;
22455;SDS011;11395;53.204;6.502;2022-11-15T17:27:49;1.40;;;1.30;;
22455;SDS011;11395;53.204;6.502;2022-11-15T17:30:23;1.00;;;1.00;;
22455;SDS011;11395;53.204;6.502;2022-11-15T17:32:49;1.10;;;1.10;;
22455;SDS011;11395;53.204;6.502;2022-11-15T17:35:18;1.50;;;1.40;;
22455;SDS011;11395;53.204;6.502;2022-11-15T17:37:47;1.40;;;1.30;;
22455;SDS011;11395;53.204;6.502;2022-11-15T17:40:16;1.33;;;1.30;;
22455;SDS011;11395;53.204;6.502;2022-11-15T17:42:42;1.40;;;1.30;;
22455;SDS011;11395;53.204;6.502;2022-11-15T17:45:09;1.23;;;1.20;;
22455;SDS011;11395;53.204;6.502;2022-11-15T17:47:36;1.23;;;1.13;;
22455;SDS011;11395;53.204;6.502;2022-11-15T17:50:02;1.10;;;1.10;;
22455;SDS011;11395;53.204;6.502;2022-11-15T17:52:29;1.23;;;1.10;;
22455;SDS011;11395;53.204;6.502;2022-11-15T17:54:55;1.40;;;1.30;;
22455;SDS011;11395;53.204;6.502;2022-11-15T17:57:21;1.30;;;1.20;;
22455;SDS011;11395;53.204;6.502;2022-11-15T17:59:47;1.50;;;1.40;;
22455;SDS011;11395;53.204;6.502;2022-11-15T18:02:14;1.03;;;1.03;;
22455;SDS011;11395;53.204;6.502;2022-11-15T18:04:40;1.67;;;1.57;;
22455;SDS011;11395;53.204;6.502;2022-11-15T18:07:07;1.97;;;1.67;;
22455;SDS011;11395;53.204;6.502;2022-11-15T18:09:36;2.30;;;1.50;;
22455;SDS011;11395;53.204;6.502;2022-11-15T18:12:07;1.53;;;1.43;;
22455;SDS011;11395;53.204;6.502;2022-11-15T18:14:33;1.33;;;1.27;;
22455;SDS011;11395;53.204;6.502;2022-11-15T18:17:00;1.20;;;1.20;;
22455;SDS011;11395;53.204;6.502;2022-11-15T18:19:26;1.27;;;1.10;;
22455;SDS011;11395;53.204;6.502;2022-11-15T18:21:53;1.20;;;1.20;;
22455;SDS011;11395;53.204;6.502;2022-11-15T18:24:22;1.43;;;1.30;;
22455;SDS011;11395;53.204;6.502;2022-11-15T18:26:50;0.90;;;0.90;;
22455;SDS011;11395;53.204;6.502;2022-11-15T18:29:16;1.40;;;1.30;;
22455;SDS011;11395;53.204;6.502;2022-11-15T18:31:44;1.30;;;1.20;;
22455;SDS011;11395;53.204;6.502;2022-11-15T18:34:11;1.03;;;1.03;;
22455;SDS011;11395;53.204;6.502;2022-11-15T18:36:38;1.53;;;1.43;;
22455;SDS011;11395;53.204;6.502;2022-11-15T18:39:06;1.33;;;1.23;;